Pagina principală
METAR-TAF:

METAR-TAF

Aeroporturi :

Manhattan, Kansas, Statele Unite ale Americii

Latitudine: 39-08-07N, longitudine: 096-40-40W, elevație: 321 m

Observații meteo curente

Raportul a fost făcut în urmă cu 59 de minute, la 14:52 UTC
Vânt 11 kt de la Nord-est
Temperatură 7°C
Umiditate 45%
Presiune 1031 hPa
Vizibilitate: 16.1 km
Cer senin

METAR: KMHK 201452Z 04011KT 10SM CLR 07/M04 A3046 RMK AO2 SLP317 T00721039 50009

Ora: 10:51 (15:51 UTC)

Prognoză

Raportul a fost făcut în urmă cu 4 ore și 31 de minute, la 11:20 UTC
Prognoză valabilă de la 20 ora 12 UTC la 21 ora 12 UTC
Vânt 8 kt de la Nord
Vizibilitate: 10 km
Nori fragmentați la o înălțime de 9000 picior
De la 21 ora 0000 UTC
Vânt 4 kt de la Nord-vest
Vizibilitate: 10 km
Nori împrăștiați la o înălțime de 10000 picior

TAF: KMHK 201120Z 2012/2112 01008KT P6SM BKN090 FM210000 31004KT P6SM SCT100

Observații și prognoze meteo pentru peste 4.000 de aeroporturi (rapoarte METAR și TAF).

Stațiile disponibile sunt reprezentate pe hartă prin puncte galbene și roșii.

Țineți indicatorul mouse-ului pe punctul dorit pentru a vedea denumirea stației.

Apoi, faceți clic pentru a vedea observațiile și prognozele meteorologice.

Pentru a schimba harta: Pentru mărire, faceți clic pe butoanele verzi cu cruce neagră; pentru micșorare, pe butonul verde cu o liniuță; pentru hărți învecinate, pe săgețile verzi.


METAR-TAF: